Time;durP1;ratioP1;P1;durP2;ratioP2;P2;SDS_P1;SDS_P2;PMS_P1;PMS_P2;Temp;Humidity;BMP_temperature;BMP_pressure;BME280_temperature;BME280_humidity;BME280_pressure;Samples;Min_cycle;Max_cycle;Signal;HPM_P1;HPM_P2
2022/07/22 00:00:25;;;;;;;11.55;7.10;;;;;;;18.79;67.25;97597.56;10377410;28;20444;-55
2022/07/22 00:05:24;;;;;;;10.77;7.05;;;;;;;18.63;67.58;97585.88;10377176;28;20476;-55
2022/07/22 00:10:23;;;;;;;11.07;7.13;;;;;;;18.48;67.94;97575.00;10377697;28;20036;-55
2022/07/22 00:15:22;;;;;;;10.85;7.43;;;;;;;18.38;68.69;97584.09;10375639;28;20104;-55
2022/07/22 00:20:21;;;;;;;14.40;6.90;;;;;;;18.30;68.67;97580.88;10376389;28;20020;-55
2022/07/22 00:25:20;;;;;;;11.63;7.57;;;;;;;18.22;69.09;97588.16;10376708;28;20064;-55
2022/07/22 00:30:19;;;;;;;11.50;7.45;;;;;;;18.16;69.53;97595.34;10376389;28;20077;-56
2022/07/22 00:35:18;;;;;;;12.57;7.55;;;;;;;18.10;70.09;97592.91;10376530;28;20037;-55
2022/07/22 00:40:17;;;;;;;10.02;6.90;;;;;;;18.08;70.63;97593.88;10375898;28;20471;-55
2022/07/22 00:45:16;;;;;;;12.70;7.38;;;;;;;18.07;70.41;97586.94;10374990;28;20029;-55
2022/07/22 00:50:15;;;;;;;12.35;7.63;;;;;;;18.06;70.75;97580.81;10375985;28;20065;-55
2022/07/22 00:55:14;;;;;;;14.00;7.40;;;;;;;18.03;70.69;97585.31;10375305;28;20072;-55
2022/07/22 01:00:18;;;;;;;11.13;7.97;;;;;;;17.85;71.29;97578.94;10375510;28;20049;-55
2022/07/22 01:05:17;;;;;;;11.55;7.57;;;;;;;17.86;70.68;97581.47;10375075;28;20076;-55
2022/07/22 01:10:17;;;;;;;13.40;7.25;;;;;;;17.76;71.65;97575.69;10374661;28;20504;-55
2022/07/22 01:15:16;;;;;;;12.55;8.27;;;;;;;17.71;71.46;97577.56;10374509;28;20091;-55
2022/07/22 01:20:15;;;;;;;15.50;8.07;;;;;;;17.68;71.78;97588.16;10374370;28;20037;-57
2022/07/22 01:25:14;;;;;;;17.85;10.88;;;;;;;17.47;72.38;97589.72;10374775;28;20072;-55
2022/07/22 01:30:13;;;;;;;15.77;10.90;;;;;;;17.38;72.37;97589.13;10375606;28;20098;-55
2022/07/22 01:35:12;;;;;;;15.93;10.80;;;;;;;17.28;72.58;97594.63;10377757;28;20032;-55
2022/07/22 01:40:11;;;;;;;;;;;;;;;17.21;72.79;97595.72;10377886;28;20493;-55
2022/07/22 01:45:10;;;;;;;18.33;11.93;;;;;;;16.97;74.04;97591.22;10376493;28;19916;-55
2022/07/22 01:50:11;;;;;;;13.82;9.77;;;;;;;16.96;73.96;97589.50;10377262;28;20068;-55
2022/07/22 01:55:12;;;;;;;16.45;10.75;;;;;;;16.89;74.20;97587.06;10376304;28;20083;-57
2022/07/22 02:00:12;;;;;;;17.83;10.75;;;;;;;16.80;74.40;97578.59;10376469;28;20076;-55
2022/07/22 02:05:12;;;;;;;16.80;10.40;;;;;;;16.78;74.35;97577.78;10375592;28;20076;-56
2022/07/22 02:10:11;;;;;;;20.50;13.35;;;;;;;16.75;74.71;97583.09;10375641;28;20068;-55
2022/07/22 02:15:10;;;;;;;;;;;;;;;16.78;74.75;97598.72;10376882;28;20091;-54
2022/07/22 02:20:09;;;;;;;16.60;10.10;;;;;;;16.74;75.52;97587.47;10375600;28;19963;-57
2022/07/22 02:25:09;;;;;;;17.13;9.38;;;;;;;16.69;75.93;97592.84;10375968;28;20063;-55
2022/07/22 02:30:09;;;;;;;14.55;8.95;;;;;;;16.70;75.72;97593.72;10374708;28;20057;-55
2022/07/22 02:35:08;;;;;;;14.48;8.55;;;;;;;16.67;76.28;97601.66;10372010;28;20076;-55
2022/07/22 02:40:08;;;;;;;15.95;8.00;;;;;;;16.62;76.53;97598.31;10371267;28;20083;-55
2022/07/22 02:45:07;;;;;;;14.35;8.88;;;;;;;16.62;76.41;97601.78;10371844;28;20534;-55
2022/07/22 02:50:07;;;;;;;15.93;9.07;;;;;;;16.63;76.47;97607.88;10370996;28;20069;-55
2022/07/22 02:55:06;;;;;;;16.65;9.23;;;;;;;16.37;76.47;97559.69;10371574;28;20060;-55
2022/07/22 03:00:09;;;;;;;14.15;8.43;;;;;;;16.63;76.15;97597.38;10370939;28;20523;-55
2022/07/22 03:05:08;;;;;;;15.00;9.13;;;;;;;16.64;76.17;97606.97;10371221;28;20076;-55
2022/07/22 03:10:08;;;;;;;15.10;8.52;;;;;;;16.65;76.42;97604.34;10379494;28;20053;-55
2022/07/22 03:15:07;;;;;;;14.43;9.05;;;;;;;16.67;76.54;97612.13;10378871;28;20524;-55
2022/07/22 03:20:09;;;;;;;14.90;8.25;;;;;;;16.74;76.12;97613.66;10379115;28;20057;-55
2022/07/22 03:25:08;;;;;;;16.00;8.68;;;;;;;16.75;76.75;97618.03;10379191;28;20064;-56
2022/07/22 03:30:07;;;;;;;25.33;9.63;;;;;;;16.77;76.62;97618.84;10378669;28;20139;-55
2022/07/22 03:35:06;;;;;;;31.67;11.23;;;;;;;16.89;76.41;97628.16;10378160;28;20075;-56
2022/07/22 03:40:06;;;;;;;22.73;9.68;;;;;;;16.91;76.30;97634.19;10378341;28;20077;-55
2022/07/22 03:45:05;;;;;;;22.70;11.07;;;;;;;16.78;76.23;97641.53;10378128;28;20456;-55
2022/07/22 03:50:05;;;;;;;19.17;10.02;;;;;;;16.87;76.20;97638.69;10378200;28;20065;-55
2022/07/22 03:55:05;;;;;;;20.40;11.07;;;;;;;16.97;76.08;97651.53;10378098;28;20521;-55
2022/07/22 04:00:06;;;;;;;16.02;12.15;;;;;;;17.10;75.94;97650.28;10378227;28;20073;-55
2022/07/22 04:05:05;;;;;;;20.38;13.00;;;;;;;17.20;75.75;97654.34;10377675;28;20466;-55
2022/07/22 04:10:04;;;;;;;22.88;11.13;;;;;;;17.20;75.92;97656.97;10377066;28;20071;-55
2022/07/22 04:15:05;;;;;;;16.45;10.07;;;;;;;17.07;76.18;97663.44;10376968;28;20526;-55
2022/07/22 04:20:05;;;;;;;22.88;11.23;;;;;;;17.00;75.81;97668.00;10375879;28;20056;-55
2022/07/22 04:25:05;;;;;;;19.35;11.52;;;;;;;16.93;75.71;97661.22;10376708;28;20096;-55
2022/07/22 04:30:05;;;;;;;17.88;11.13;;;;;;;17.03;75.72;97667.09;10376214;28;20463;-55
2022/07/22 04:35:04;;;;;;;16.95;11.73;;;;;;;17.16;75.51;97668.44;10376329;28;20071;-55
2022/07/22 04:40:04;;;;;;;23.02;11.52;;;;;;;17.24;75.70;97679.59;10375418;28;20076;-55
2022/07/22 04:45:04;;;;;;;15.48;11.02;;;;;;;17.31;74.90;97677.63;10372904;28;20534;-55
2022/07/22 04:50:03;;;;;;;19.05;10.93;;;;;;;17.34;74.99;97673.16;10374873;28;20508;-55
2022/07/22 04:55:03;;;;;;;16.70;10.43;;;;;;;17.53;74.88;97689.19;10370998;28;20068;-55
2022/07/22 05:00:04;;;;;;;16.15;10.23;;;;;;;17.58;74.64;97702.19;10373781;28;20060;-55
2022/07/22 05:05:03;;;;;;;13.10;10.18;;;;;;;17.75;73.72;97704.28;10374298;28;20075;-55
2022/07/22 05:10:03;;;;;;;10.98;7.25;;;;;;;18.02;72.37;97697.34;10368128;28;20467;-55
2022/07/22 05:15:02;;;;;;;15.00;9.23;;;;;;;18.32;71.46;97697.28;10373080;28;20060;-55
2022/07/22 05:20:05;;;;;;;20.55;9.65;;;;;;;18.65;70.33;97702.31;10373844;28;20064;-55
2022/07/22 05:25:04;;;;;;;16.08;9.48;;;;;;;18.95;69.63;97695.16;10371041;28;20079;-55
2022/07/22 05:30:03;;;;;;;22.17;9.43;;;;;;;19.16;68.81;97689.13;10373451;28;20064;-56
2022/07/22 05:35:02;;;;;;;18.55;10.38;;;;;;;19.52;68.06;97700.97;10373988;28;20068;-58
2022/07/22 05:40:02;;;;;;;21.85;9.68;;;;;;;19.85;67.12;97699.69;10373264;28;20080;-57
2022/07/22 05:45:01;;;;;;;22.27;8.77;;;;;;;20.05;65.27;97684.88;10373186;28;20056;-58
2022/07/22 05:50:00;;;;;;;20.52;7.50;;;;;;;20.44;62.62;97700.84;10373291;28;20503;-56
2022/07/22 05:55:00;;;;;;;13.20;6.70;;;;;;;20.70;60.34;97702.41;10373186;28;20506;-57
2022/07/22 05:59:59;;;;;;;12.20;7.00;;;;;;;21.07;60.36;97705.22;10372971;28;20068;-56
2022/07/22 06:05:00;;;;;;;10.65;6.72;;;;;;;21.31;58.06;97711.19;10372578;28;20515;-54
2022/07/22 06:09:59;;;;;;;13.82;6.15;;;;;;;21.47;57.59;97711.38;10372059;28;20126;-55
2022/07/22 06:14:58;;;;;;;14.48;6.85;;;;;;;21.79;56.63;97712.53;10370422;28;20051;-55
2022/07/22 06:19:57;;;;;;;9.70;6.10;;;;;;;22.12;54.50;97719.81;10370706;28;20068;-57
2022/07/22 06:24:56;;;;;;;9.57;6.60;;;;;;;22.35;54.33;97726.63;10371903;28;20032;-55
2022/07/22 06:29:55;;;;;;;9.52;6.15;;;;;;;22.64;53.02;97717.22;10372340;28;20029;-55
2022/07/22 06:34:54;;;;;;;9.23;6.75;;;;;;;22.95;51.32;97726.28;10374931;28;20109;-57
2022/07/22 06:39:53;;;;;;;9.20;5.63;;;;;;;23.21;50.51;97723.13;10374625;28;20081;-56
2022/07/22 06:44:52;;;;;;;11.32;7.35;;;;;;;23.50;50.56;97733.16;10374526;28;20020;-56
2022/07/22 06:49:51;;;;;;;13.05;7.13;;;;;;;23.80;51.51;97728.81;10375013;28;20072;-56
2022/07/22 06:54:50;;;;;;;11.82;7.80;;;;;;;24.07;51.23;97728.22;10374932;28;20108;-56
2022/07/22 06:59:49;;;;;;;11.13;7.00;;;;;;;24.34;50.87;97731.16;10374441;28;20033;-56
2022/07/22 07:04:48;;;;;;;12.98;7.22;;;;;;;24.67;50.22;97735.44;10374683;28;20507;-56
2022/07/22 07:09:47;;;;;;;10.45;6.70;;;;;;;24.93;49.30;97735.75;10374301;28;20029;-56
2022/07/22 07:14:46;;;;;;;8.70;7.03;;;;;;;25.08;46.42;97721.53;10374301;28;20411;-56
2022/07/22 07:19:45;;;;;;;8.93;6.03;;;;;;;25.28;46.09;97730.97;10374385;28;20492;-56
2022/07/22 07:24:44;;;;;;;9.45;5.82;;;;;;;25.51;43.96;97733.06;10374266;28;20488;-56
2022/07/22 07:29:43;;;;;;;10.23;4.95;;;;;;;25.79;42.43;97738.47;10373241;28;20040;-56
2022/07/22 07:34:42;;;;;;;12.13;5.28;;;;;;;26.12;41.82;97740.78;10370624;28;20020;-56
2022/07/22 07:39:41;;;;;;;8.80;5.57;;;;;;;26.30;40.61;97738.75;10369907;28;20466;-56
2022/07/22 07:44:40;;;;;;;9.05;4.88;;;;;;;26.41;39.30;97735.41;10370232;28;20067;-56
2022/07/22 07:49:39;;;;;;;7.95;4.80;;;;;;;26.56;38.83;97740.56;10369810;28;20069;-56
2022/07/22 07:54:39;;;;;;;7.65;5.10;;;;;;;26.71;39.73;97749.34;10375560;28;20108;-57
2022/07/22 07:59:39;;;;;;;8.40;5.07;;;;;;;26.93;39.15;97745.25;10377928;28;20534;-56
2022/07/22 08:04:38;;;;;;;7.97;5.45;;;;;;;27.06;38.82;97748.81;10377463;28;20060;-56
2022/07/22 08:09:37;;;;;;;9.43;5.30;;;;;;;27.18;38.42;97747.09;10377045;28;20024;-56
2022/07/22 08:14:36;;;;;;;10.15;5.68;;;;;;;27.37;38.37;97742.19;10376544;28;20045;-56
2022/07/22 08:19:35;;;;;;;7.30;4.93;;;;;;;27.55;38.26;97750.75;10377316;28;20021;-56
2022/07/22 08:24:34;;;;;;;10.80;5.40;;;;;;;27.73;37.77;97743.28;10376836;28;20056;-56
2022/07/22 08:29:33;;;;;;;8.68;5.00;;;;;;;27.86;37.70;97750.41;10376265;28;20077;-56
2022/07/22 08:34:32;;;;;;;11.88;5.18;;;;;;;27.97;37.88;97758.50;10376218;28;20071;-56
2022/07/22 08:39:33;;;;;;;7.68;5.25;;;;;;;28.14;37.94;97759.97;10375897;28;20052;-56
2022/07/22 08:44:33;;;;;;;9.18;5.50;;;;;;;28.25;37.89;97760.88;10376694;28;20500;-56
2022/07/22 08:49:32;;;;;;;8.45;5.53;;;;;;;28.30;37.54;97741.88;10375049;28;20060;-56
2022/07/22 08:54:31;;;;;;;9.63;5.35;;;;;;;28.58;37.60;97762.03;10375398;28;20080;-56
2022/07/22 08:59:30;;;;;;;9.20;4.82;;;;;;;28.70;37.44;97762.13;10373802;28;20473;-56
2022/07/22 09:04:31;;;;;;;13.23;5.80;;;;;;;28.83;36.94;97760.25;10374211;28;20562;-56
2022/07/22 09:09:32;;;;;;;10.00;4.93;;;;;;;28.85;35.72;97763.63;10374514;28;20080;-56
2022/07/22 09:14:47;;;;;;;7.68;4.65;;;;;;;28.88;34.14;97774.09;10375219;28;20468;-56
2022/07/22 09:19:46;;;;;;;7.65;4.60;;;;;;;28.89;33.96;97765.09;10374569;28;20523;-56
2022/07/22 09:24:45;;;;;;;8.73;4.55;;;;;;;28.98;33.57;97780.44;10374325;28;20858;-56
2022/07/22 09:29:49;;;;;;;8.27;5.28;;;;;;;29.06;33.73;97762.03;10374102;28;20080;-56
2022/07/22 09:34:48;;;;;;;7.03;4.78;;;;;;;29.14;33.51;97765.91;10377350;28;20087;-56
2022/07/22 09:39:47;;;;;;;8.65;4.85;;;;;;;29.19;33.24;97779.78;10377055;28;20047;-57
2022/07/22 09:44:48;;;;;;;8.50;5.72;;;;;;;29.28;33.87;97777.28;10376764;28;20094;-56
2022/07/22 09:49:47;;;;;;;8.75;4.85;;;;;;;29.47;33.83;97768.69;10376597;28;20061;-56
2022/07/22 09:54:46;;;;;;;12.32;5.43;;;;;;;29.76;33.87;97765.53;10376556;28;20108;-56
2022/07/22 09:59:45;;;;;;;7.20;4.55;;;;;;;29.72;33.13;97764.09;10373958;28;20059;-57
2022/07/22 10:04:46;;;;;;;6.95;4.60;;;;;;;29.85;32.59;97770.19;10376218;28;20037;-56
2022/07/22 10:09:47;;;;;;;8.25;4.75;;;;;;;29.99;32.24;97761.06;10375761;28;20083;-57
2022/07/22 10:14:47;;;;;;;7.18;4.82;;;;;;;29.87;32.22;97752.19;10375840;28;20041;-56
2022/07/22 10:19:46;;;;;;;6.15;4.95;;;;;;;30.10;32.67;97763.72;10375038;28;20029;-56
2022/07/22 10:25:00;;;;;;;6.85;4.68;;;;;;;30.29;30.98;97757.72;10375578;28;20373;-55
2022/07/22 10:29:59;;;;;;;6.88;4.63;;;;;;;30.40;31.51;97764.00;10374384;28;20102;-56
2022/07/22 10:34:58;;;;;;;8.77;4.78;;;;;;;30.37;30.40;97758.91;10371780;28;20065;-56
2022/07/22 10:40:24;;;;;;;8.00;5.03;;;;;;;30.45;30.12;97754.66;10371133;28;20037;-55
2022/07/22 10:45:48;;;;;;;9.30;4.07;;;;;;;30.59;29.41;97748.19;10371439;28;20080;-56
2022/07/22 10:50:50;;;;;;;6.00;4.35;;;;;;;30.91;29.67;97741.94;10368439;28;20073;-55
2022/07/22 10:56:12;;;;;;;9.07;5.07;;;;;;;31.17;30.41;97737.94;10371469;28;20512;-56
2022/07/22 11:01:14;;;;;;;5.88;4.45;;;;;;;31.21;29.17;97743.03;10371350;28;20759;-56
2022/07/22 11:06:25;;;;;;;12.02;4.45;;;;;;;31.21;29.06;97737.66;10371090;28;20065;-56
2022/07/22 11:11:34;;;;;;;6.65;4.88;;;;;;;31.34;29.49;97732.94;10370911;28;20073;-56
2022/07/22 11:16:33;;;;;;;8.95;4.68;;;;;;;31.41;29.45;97722.53;10370991;28;20064;-56
2022/07/22 11:21:34;;;;;;;14.02;4.97;;;;;;;31.37;29.55;97721.94;10370682;28;20036;-56
2022/07/22 11:26:35;;;;;;;7.93;4.85;;;;;;;31.31;29.90;97726.03;10371137;28;20064;-56
2022/07/22 11:31:36;;;;;;;7.97;5.13;;;;;;;31.56;29.12;97727.44;10378839;28;20072;-56
2022/07/22 11:36:37;;;;;;;6.70;4.75;;;;;;;31.83;29.46;97714.41;10378548;28;20064;-56
2022/07/22 11:41:37;;;;;;;8.85;4.82;;;;;;;31.74;28.11;97711.56;10378266;28;20460;-56
2022/07/22 11:46:38;;;;;;;8.68;4.80;;;;;;;32.01;28.73;97716.31;10377690;28;20072;-56
2022/07/22 11:51:38;;;;;;;5.65;4.22;;;;;;;32.11;28.70;97710.16;10378137;28;20056;-56
2022/07/22 11:56:37;;;;;;;7.97;4.40;;;;;;;31.99;27.60;97712.03;10377531;28;20071;-56
2022/07/22 12:01:37;;;;;;;8.18;4.13;;;;;;;31.82;26.11;97716.22;10377857;28;20320;-56
2022/07/22 12:06:39;;;;;;;6.63;3.78;;;;;;;31.79;25.14;97700.41;10378184;28;20068;-56
2022/07/22 12:11:41;;;;;;;6.25;4.32;;;;;;;32.03;24.73;97701.88;10377375;28;20483;-56
2022/07/22 12:16:42;;;;;;;6.57;3.33;;;;;;;32.23;23.02;97709.03;10376369;28;20069;-56
2022/07/22 12:21:54;;;;;;;7.35;3.88;;;;;;;32.28;24.54;97706.78;10377054;28;20072;-56
2022/07/22 12:26:53;;;;;;;8.38;3.80;;;;;;;32.40;23.63;97694.91;10376074;28;20468;-56
2022/07/22 12:31:54;;;;;;;6.63;3.80;;;;;;;32.21;23.44;97700.28;10376555;28;20171;-56
2022/07/22 12:36:54;;;;;;;5.13;3.63;;;;;;;32.12;23.58;97710.00;10376174;28;20072;-56
2022/07/22 12:41:54;;;;;;;5.28;3.70;;;;;;;32.35;23.54;97697.16;10374627;28;20190;-56
2022/07/22 12:46:55;;;;;;;5.95;3.75;;;;;;;32.57;23.86;97685.31;10375272;28;20072;-56
2022/07/22 12:52:13;;;;;;;5.07;3.97;;;;;;;32.51;24.10;97691.25;10375214;28;20496;-56
2022/07/22 12:57:12;;;;;;;;;;;;;;;32.75;24.22;97681.94;10376573;28;20060;-56
2022/07/22 13:02:11;;;;;;;6.50;4.45;;;;;;;32.88;24.00;97677.13;10375799;28;19908;-56
2022/07/22 13:07:10;;;;;;;6.78;3.97;;;;;;;32.82;24.71;97681.22;10375253;28;20507;-56
2022/07/22 13:12:09;;;;;;;6.97;4.00;;;;;;;32.93;24.05;97690.13;10374431;28;20041;-56
2022/07/22 13:17:08;;;;;;;7.60;3.97;;;;;;;32.89;23.79;97677.97;10374736;28;20037;-56
2022/07/22 13:22:07;;;;;;;7.00;4.70;;;;;;;33.03;23.80;97682.88;10374558;28;20032;-56
2022/07/22 13:27:06;;;;;;;7.15;4.32;;;;;;;33.00;23.67;97670.56;10374710;28;20033;-56
2022/07/22 13:32:05;;;;;;;7.80;4.63;;;;;;;33.09;23.01;97681.44;10374550;28;20028;-56
2022/07/22 13:37:04;;;;;;;8.10;4.95;;;;;;;33.15;22.96;97691.66;10374665;28;20060;-56
2022/07/22 13:42:04;;;;;;;8.75;5.40;;;;;;;32.96;22.32;97671.00;10374042;28;20049;-56
2022/07/22 13:47:03;;;;;;;6.38;4.70;;;;;;;33.11;22.57;97688.38;10373830;28;20052;-56
2022/07/22 13:52:03;;;;;;;5.28;4.43;;;;;;;33.16;22.47;97678.06;10373517;28;20544;-56
2022/07/22 13:57:04;;;;;;;6.47;4.28;;;;;;;33.11;22.62;97671.41;10373599;28;20452;-56
2022/07/22 14:02:03;;;;;;;5.13;4.50;;;;;;;33.09;22.72;97671.59;10373139;28;20072;-57
2022/07/22 14:07:02;;;;;;;8.98;4.65;;;;;;;33.24;22.75;97678.19;10372620;28;20526;-57
2022/07/22 14:12:01;;;;;;;6.93;4.70;;;;;;;33.52;23.47;97672.84;10372640;28;20060;-55
2022/07/22 14:17:00;;;;;;;7.90;5.18;;;;;;;33.48;23.61;97674.13;10372533;28;20032;-56
2022/07/22 14:21:59;;;;;;;6.82;5.10;;;;;;;33.37;23.38;97677.88;10372088;28;20060;-55
2022/07/22 14:26:58;;;;;;;7.13;5.65;;;;;;;33.44;23.40;97670.03;10372511;28;20068;-56
2022/07/22 14:31:57;;;;;;;8.20;5.88;;;;;;;33.46;23.23;97679.63;10373650;28;20032;-56
2022/07/22 14:36:56;;;;;;;9.68;4.97;;;;;;;33.21;23.55;97670.41;10375261;28;20029;-55
2022/07/22 14:41:55;;;;;;;8.82;6.07;;;;;;;33.29;23.78;97671.53;10375165;28;20076;-56
2022/07/22 14:46:54;;;;;;;10.00;5.88;;;;;;;33.33;23.53;97660.31;10375425;28;20538;-56
2022/07/22 14:51:53;;;;;;;8.93;6.07;;;;;;;33.31;23.25;97659.63;10375044;28;20611;-56
2022/07/22 14:56:52;;;;;;;10.75;7.22;;;;;;;33.39;22.92;97659.72;10373215;28;20400;-56
2022/07/22 15:01:53;;;;;;;8.63;7.03;;;;;;;33.37;23.79;97655.47;10349539;28;20033;-56
2022/07/22 15:06:52;;;;;;;12.05;6.78;;;;;;;33.23;23.99;97654.97;10342530;28;20485;-56
2022/07/22 15:11:53;;;;;;;11.68;6.63;;;;;;;33.15;23.75;97646.78;10342000;28;20029;-56
2022/07/22 15:16:52;;;;;;;8.82;6.30;;;;;;;33.26;23.53;97653.84;10341277;28;20045;-56
2022/07/22 15:21:51;;;;;;;11.05;6.30;;;;;;;33.17;23.69;97652.03;10348245;28;20063;-57
2022/07/22 15:26:51;;;;;;;8.45;6.25;;;;;;;33.23;23.63;97648.72;10382949;28;20032;-56
2022/07/22 15:31:50;;;;;;;11.13;7.22;;;;;;;33.24;23.62;97651.28;10381331;28;20064;-56
2022/07/22 15:36:49;;;;;;;11.07;6.15;;;;;;;33.13;23.66;97643.38;10379137;28;20033;-57
2022/07/22 15:41:48;;;;;;;8.90;6.35;;;;;;;33.08;23.72;97644.81;10378234;28;20523;-56
2022/07/22 15:46:47;;;;;;;9.55;6.45;;;;;;;33.01;23.93;97647.22;10378653;28;20039;-56
2022/07/22 15:51:47;;;;;;;10.10;6.05;;;;;;;33.06;23.83;97653.00;10377598;28;20068;-57
2022/07/22 15:56:46;;;;;;;8.35;5.65;;;;;;;33.10;25.13;97649.06;10377901;28;20087;-56
2022/07/22 16:01:45;;;;;;;8.05;4.93;;;;;;;33.03;24.32;97648.78;10376935;28;20037;-57
2022/07/22 16:06:44;;;;;;;11.00;7.22;;;;;;;32.98;24.53;97651.06;10377452;28;20048;-56
2022/07/22 16:11:43;;;;;;;10.05;5.75;;;;;;;33.02;23.31;97652.47;10377778;28;20064;-57
2022/07/22 16:16:42;;;;;;;11.45;5.60;;;;;;;33.01;24.49;97645.38;10373961;28;20584;-56
2022/07/22 16:21:41;;;;;;;9.52;5.22;;;;;;;32.95;24.85;97650.47;10376736;28;20024;-57
2022/07/22 16:26:40;;;;;;;9.27;5.15;;;;;;;32.83;25.33;97658.72;10376710;28;20033;-56
2022/07/22 16:31:40;;;;;;;9.48;5.63;;;;;;;32.63;24.96;97652.53;10374884;28;20072;-56
2022/07/22 16:36:39;;;;;;;10.70;5.25;;;;;;;32.55;25.30;97647.00;10376028;28;20080;-56
2022/07/22 16:41:38;;;;;;;10.80;5.15;;;;;;;32.54;25.84;97649.81;10375244;28;20041;-56
2022/07/22 16:46:37;;;;;;;9.00;5.50;;;;;;;32.48;26.49;97653.06;10374257;28;20036;-56
2022/07/22 16:51:36;;;;;;;8.90;6.03;;;;;;;32.32;26.25;97649.13;10375628;28;20493;-56
2022/07/22 16:56:35;;;;;;;10.48;6.20;;;;;;;32.23;26.31;97652.66;10375548;28;20098;-56
2022/07/22 17:01:33;;;;;;;9.80;6.57;;;;;;;32.10;27.41;97660.13;10375098;28;20028;-56
2022/07/22 17:06:32;;;;;;;10.43;7.68;;;;;;;31.91;27.31;97663.59;10375604;28;20036;-57
2022/07/22 17:11:32;;;;;;;9.95;6.32;;;;;;;31.78;26.86;97655.81;10374960;28;20484;-56
2022/07/22 17:16:31;;;;;;;12.35;6.43;;;;;;;31.57;28.64;97654.03;10374336;28;20076;-56
2022/07/22 17:21:30;;;;;;;13.23;6.30;;;;;;;31.36;29.89;97666.63;10374667;28;20060;-56
2022/07/22 17:26:29;;;;;;;8.70;6.07;;;;;;;30.96;30.87;97659.38;10373870;28;20044;-56
2022/07/22 17:31:28;;;;;;;9.10;5.55;;;;;;;30.58;30.86;97666.13;10374974;28;20061;-56
2022/07/22 17:36:27;;;;;;;8.25;5.45;;;;;;;30.20;31.78;97667.47;10374307;28;20083;-56
2022/07/22 17:41:26;;;;;;;10.57;6.05;;;;;;;29.82;32.54;97668.75;10373547;28;20045;-56
2022/07/22 17:46:25;;;;;;;9.73;6.30;;;;;;;29.40;33.17;97665.03;10373568;28;20035;-56
2022/07/22 17:51:24;;;;;;;10.73;5.72;;;;;;;28.95;33.87;97671.16;10373470;28;20065;-56
2022/07/22 17:56:23;;;;;;;13.18;6.70;;;;;;;28.52;34.76;97676.22;10373183;28;20039;-56
2022/07/22 18:01:22;;;;;;;12.35;7.22;;;;;;;28.10;35.73;97681.97;10373014;28;20571;-56
2022/07/22 18:06:21;;;;;;;11.65;7.18;;;;;;;27.77;35.83;97683.41;10372625;28;20419;-56
2022/07/22 18:11:20;;;;;;;53.17;10.18;;;;;;;27.47;36.71;97686.50;10372441;28;20031;-56
2022/07/22 18:16:19;;;;;;;32.65;7.35;;;;;;;27.07;37.46;97697.22;10372615;28;20025;-56
2022/07/22 18:21:18;;;;;;;13.02;6.53;;;;;;;26.65;38.56;97706.31;10370780;28;20407;-56
2022/07/22 18:26:17;;;;;;;13.40;6.25;;;;;;;26.31;39.37;97698.75;10371665;28;20064;-55
2022/07/22 18:31:16;;;;;;;10.50;5.93;;;;;;;26.14;39.97;97718.47;10372443;28;20068;-54
2022/07/22 18:36:15;;;;;;;10.48;6.38;;;;;;;25.90;40.42;97731.53;10371224;28;20120;-55
2022/07/22 18:41:14;;;;;;;15.65;7.15;;;;;;;25.68;40.99;97731.19;10371695;28;20037;-56
2022/07/22 18:46:13;;;;;;;13.23;6.35;;;;;;;25.45;41.58;97740.53;10372207;28;20110;-57
2022/07/22 18:51:13;;;;;;;9.38;7.10;;;;;;;25.29;42.36;97743.28;10371679;28;20080;-55
2022/07/22 18:56:12;;;;;;;9.65;5.80;;;;;;;25.08;42.66;97748.97;10371434;28;20079;-54
2022/07/22 19:01:11;;;;;;;10.52;6.05;;;;;;;24.89;42.70;97749.22;10371491;28;20108;-55
2022/07/22 19:06:10;;;;;;;11.02;6.30;;;;;;;24.71;42.98;97752.91;10371185;28;20080;-54
2022/07/22 19:11:09;;;;;;;8.95;6.63;;;;;;;24.51;42.99;97762.00;10371153;28;20073;-57
2022/07/22 19:16:08;;;;;;;10.95;6.68;;;;;;;24.36;42.80;97762.91;10371358;28;20112;-57
2022/07/22 19:21:07;;;;;;;12.32;7.15;;;;;;;24.26;43.20;97765.19;10371109;28;20029;-57
2022/07/22 19:26:06;;;;;;;13.32;6.82;;;;;;;24.20;43.72;97770.84;10370679;28;20035;-57
2022/07/22 19:31:05;;;;;;;13.15;7.55;;;;;;;24.08;44.44;97771.53;10372194;28;20075;-56
2022/07/22 19:36:04;;;;;;;16.52;8.15;;;;;;;24.03;45.64;97780.56;10374214;28;20032;-56
2022/07/22 19:41:03;;;;;;;13.77;8.45;;;;;;;23.93;46.35;97786.44;10373924;28;20076;-56
2022/07/22 19:46:02;;;;;;;13.57;8.85;;;;;;;23.76;46.98;97776.78;10374329;28;20028;-56
2022/07/22 19:51:01;;;;;;;16.17;10.48;;;;;;;23.64;47.98;97784.44;10379653;28;20032;-56
2022/07/22 19:56:00;;;;;;;16.13;10.65;;;;;;;23.49;49.05;97785.28;10381360;28;20028;-56
2022/07/22 20:00:59;;;;;;;18.02;11.00;;;;;;;23.36;49.15;97794.75;10381204;28;20296;-56
2022/07/22 20:06:00;;;;;;;14.60;9.10;;;;;;;23.25;49.77;97795.31;10380912;28;20033;-56
2022/07/22 20:11:00;;;;;;;12.27;8.20;;;;;;;23.07;49.81;97794.47;10381018;28;20514;-57
2022/07/22 20:16:00;;;;;;;13.40;7.85;;;;;;;22.99;49.59;97801.94;10380380;28;20163;-56
2022/07/22 20:20:59;;;;;;;15.23;9.63;;;;;;;22.89;50.40;97809.47;10380559;28;20037;-56
2022/07/22 20:25:58;;;;;;;13.80;8.75;;;;;;;22.63;52.23;97796.66;10380403;28;20076;-56
2022/07/22 20:30:57;;;;;;;19.05;11.57;;;;;;;22.48;52.93;97804.38;10378894;28;20080;-56
2022/07/22 20:35:56;;;;;;;22.00;12.38;;;;;;;22.36;53.22;97813.78;10376562;28;20105;-56
2022/07/22 20:40:55;;;;;;;19.25;11.65;;;;;;;22.28;53.34;97813.28;10376721;28;20081;-56
2022/07/22 20:45:54;;;;;;;13.95;10.18;;;;;;;22.13;54.19;97822.81;10375936;28;20073;-56
2022/07/22 20:50:53;;;;;;;15.50;10.98;;;;;;;21.99;55.32;97834.94;10375694;28;20021;-56
2022/07/22 20:55:52;;;;;;;14.02;9.95;;;;;;;21.82;56.66;97833.88;10375609;28;20431;-55
2022/07/22 21:00:51;;;;;;;18.73;10.95;;;;;;;21.70;56.92;97824.72;10374826;28;20119;-56
2022/07/22 21:05:50;;;;;;;17.10;10.88;;;;;;;21.60;57.47;97830.50;10375170;28;20071;-56
2022/07/22 21:10:49;;;;;;;18.67;9.98;;;;;;;21.40;58.04;97841.94;10375249;28;20025;-56
2022/07/22 21:15:48;;;;;;;16.55;9.48;;;;;;;21.28;58.39;97824.84;10374704;28;20068;-56
2022/07/22 21:20:47;;;;;;;18.42;10.55;;;;;;;21.12;58.47;97814.03;10375120;28;20076;-56
2022/07/22 21:25:46;;;;;;;15.82;9.48;;;;;;;21.05;59.13;97831.91;10374703;28;20113;-56
2022/07/22 21:30:45;;;;;;;15.25;9.32;;;;;;;20.95;59.15;97830.59;10374473;28;20040;-56
2022/07/22 21:35:44;;;;;;;12.15;8.52;;;;;;;20.82;59.50;97827.63;10374620;28;20065;-56
2022/07/22 21:40:43;;;;;;;14.13;8.82;;;;;;;20.71;60.21;97830.69;10374149;28;20412;-56
2022/07/22 21:45:48;;;;;;;15.73;9.70;;;;;;;20.63;60.57;97830.16;10373525;28;20051;-56
2022/07/22 21:50:50;;;;;;;11.73;8.98;;;;;;;20.61;60.29;97834.63;10373500;28;20083;-56
2022/07/22 22:01:06;;;;;;;15.73;10.20;;;;;;;20.51;61.23;97827.97;10374385;28;20060;-56
2022/07/22 22:06:05;;;;;;;26.55;11.00;;;;;;;20.48;61.42;97826.31;10372980;28;20464;-55
2022/07/22 22:11:04;;;;;;;18.27;10.57;;;;;;;20.32;61.82;97817.28;10372656;28;20422;-56
2022/07/22 22:16:03;;;;;;;21.00;11.55;;;;;;;20.35;62.33;97821.56;10372528;28;20028;-56
2022/07/22 22:21:02;;;;;;;18.45;10.65;;;;;;;20.29;62.53;97826.16;10372337;28;20064;-56
2022/07/22 22:26:01;;;;;;;14.43;9.18;;;;;;;20.20;63.17;97829.16;10372660;28;20167;-56
2022/07/22 22:31:00;;;;;;;19.45;10.00;;;;;;;20.14;63.58;97829.41;10373183;28;20045;-56
2022/07/22 22:35:59;;;;;;;16.52;10.18;;;;;;;20.00;64.49;97834.31;10375858;28;20415;-56
2022/07/22 22:40:58;;;;;;;14.88;9.88;;;;;;;19.87;64.28;97829.53;10375267;28;20768;-56
2022/07/22 22:45:57;;;;;;;16.75;10.98;;;;;;;19.85;64.44;97822.59;10373611;28;20064;-56
2022/07/22 22:50:56;;;;;;;17.73;13.13;;;;;;;19.83;64.50;97827.91;10375254;28;20411;-55
2022/07/22 22:55:59;;;;;;;24.27;18.50;;;;;;;19.80;64.82;97822.78;10375419;28;20048;-56
2022/07/22 23:00:58;;;;;;;23.60;21.27;;;;;;;19.70;65.21;97825.78;10375038;28;20496;-56
2022/07/22 23:05:57;;;;;;;18.38;14.50;;;;;;;19.61;65.19;97821.75;10374664;28;20466;-55